sensor_id;sensor_type;location;lat;lon;timestamp;pressure;altitude;pressure_sealevel;temperature
78669;BMP280;67984;45.118;20.724;2023-06-22T00:09:56;100770.44;;;24.29
78669;BMP280;67984;45.118;20.724;2023-06-22T00:19:57;100751.34;;;24.22
78669;BMP280;67984;45.118;20.724;2023-06-22T00:29:59;100727.72;;;24.15
78669;BMP280;67984;45.118;20.724;2023-06-22T00:40:00;100767.66;;;24.09
78669;BMP280;67984;45.118;20.724;2023-06-22T00:50:01;100749.88;;;24.06
78669;BMP280;67984;45.118;20.724;2023-06-22T01:00:06;100724.13;;;24.03
78669;BMP280;67984;45.118;20.724;2023-06-22T01:20:15;100704.09;;;23.94
78669;BMP280;67984;45.118;20.724;2023-06-22T01:30:16;100692.09;;;23.89
78669;BMP280;67984;45.118;20.724;2023-06-22T01:40:19;100777.78;;;23.82
78669;BMP280;67984;45.118;20.724;2023-06-22T01:50:21;100786.31;;;24.09
78669;BMP280;67984;45.118;20.724;2023-06-22T02:00:25;100783.56;;;24.04
78669;BMP280;67984;45.118;20.724;2023-06-22T02:10:31;100772.38;;;23.77
78669;BMP280;67984;45.118;20.724;2023-06-22T02:20:36;100780.19;;;23.57
78669;BMP280;67984;45.118;20.724;2023-06-22T02:30:37;100784.44;;;23.40
78669;BMP280;67984;45.118;20.724;2023-06-22T02:40:38;100792.81;;;23.24
78669;BMP280;67984;45.118;20.724;2023-06-22T02:50:38;100791.09;;;23.03
78669;BMP280;67984;45.118;20.724;2023-06-22T03:00:40;100800.63;;;22.96
78669;BMP280;67984;45.118;20.724;2023-06-22T03:10:41;100780.81;;;22.88
78669;BMP280;67984;45.118;20.724;2023-06-22T03:20:42;100772.53;;;22.86
78669;BMP280;67984;45.118;20.724;2023-06-22T03:30:43;100758.63;;;22.91
78669;BMP280;67984;45.118;20.724;2023-06-22T03:40:44;100758.75;;;22.96
78669;BMP280;67984;45.118;20.724;2023-06-22T03:50:45;100768.94;;;22.98
78669;BMP280;67984;45.118;20.724;2023-06-22T04:00:49;100772.47;;;23.03
78669;BMP280;67984;45.118;20.724;2023-06-22T04:10:50;100769.78;;;23.12
78669;BMP280;67984;45.118;20.724;2023-06-22T04:20:50;100769.44;;;23.43
78669;BMP280;67984;45.118;20.724;2023-06-22T04:30:51;100776.72;;;23.89
78669;BMP280;67984;45.118;20.724;2023-06-22T04:40:52;100798.47;;;24.25
78669;BMP280;67984;45.118;20.724;2023-06-22T04:50:53;100787.78;;;24.96
78669;BMP280;67984;45.118;20.724;2023-06-22T05:00:54;100794.03;;;25.87
78669;BMP280;67984;45.118;20.724;2023-06-22T05:10:57;100801.88;;;26.21
78669;BMP280;67984;45.118;20.724;2023-06-22T05:20:58;100818.59;;;26.66
78669;BMP280;67984;45.118;20.724;2023-06-22T05:30:59;100822.06;;;27.14
78669;BMP280;67984;45.118;20.724;2023-06-22T05:41:00;100820.53;;;27.54
78669;BMP280;67984;45.118;20.724;2023-06-22T05:51:01;100820.41;;;27.96
78669;BMP280;67984;45.118;20.724;2023-06-22T06:01:01;100807.97;;;28.15
78669;BMP280;67984;45.118;20.724;2023-06-22T06:11:02;100807.97;;;28.47
78669;BMP280;67984;45.118;20.724;2023-06-22T06:21:03;100802.34;;;28.51
78669;BMP280;67984;45.118;20.724;2023-06-22T06:31:04;100805.50;;;28.71
78669;BMP280;67984;45.118;20.724;2023-06-22T06:41:07;100814.47;;;29.01
78669;BMP280;67984;45.118;20.724;2023-06-22T06:51:08;100816.03;;;29.36
78669;BMP280;67984;45.118;20.724;2023-06-22T07:01:12;100810.94;;;29.73
78669;BMP280;67984;45.118;20.724;2023-06-22T07:11:13;100809.13;;;30.15
78669;BMP280;67984;45.118;20.724;2023-06-22T07:21:13;100804.44;;;30.45
78669;BMP280;67984;45.118;20.724;2023-06-22T07:31:14;100797.63;;;30.86
78669;BMP280;67984;45.118;20.724;2023-06-22T07:41:15;100806.69;;;31.07
78669;BMP280;67984;45.118;20.724;2023-06-22T07:51:16;100803.63;;;31.34
78669;BMP280;67984;45.118;20.724;2023-06-22T08:01:17;100814.91;;;31.51
78669;BMP280;67984;45.118;20.724;2023-06-22T08:11:20;100817.78;;;32.15
78669;BMP280;67984;45.118;20.724;2023-06-22T08:21:22;100815.44;;;32.63
78669;BMP280;67984;45.118;20.724;2023-06-22T08:31:23;100835.06;;;33.02
78669;BMP280;67984;45.118;20.724;2023-06-22T08:41:24;100823.00;;;33.23
78669;BMP280;67984;45.118;20.724;2023-06-22T08:51:26;100824.19;;;33.68
78669;BMP280;67984;45.118;20.724;2023-06-22T09:01:27;100835.06;;;33.96
78669;BMP280;67984;45.118;20.724;2023-06-22T09:11:28;100845.59;;;34.27
78669;BMP280;67984;45.118;20.724;2023-06-22T09:21:28;100837.16;;;34.80
78669;BMP280;67984;45.118;20.724;2023-06-22T09:31:29;100823.56;;;35.59
78669;BMP280;67984;45.118;20.724;2023-06-22T09:41:30;100828.38;;;35.98
78669;BMP280;67984;45.118;20.724;2023-06-22T09:51:31;100846.06;;;36.43
78669;BMP280;67984;45.118;20.724;2023-06-22T10:01:31;100854.03;;;33.55
78669;BMP280;67984;45.118;20.724;2023-06-22T10:11:32;100854.31;;;32.98
78669;BMP280;67984;45.118;20.724;2023-06-22T10:21:35;100846.00;;;32.71
78669;BMP280;67984;45.118;20.724;2023-06-22T10:31:36;100837.72;;;33.15
78669;BMP280;67984;45.118;20.724;2023-06-22T10:41:36;100843.59;;;32.93
78669;BMP280;67984;45.118;20.724;2023-06-22T10:51:37;100833.94;;;32.72
78669;BMP280;67984;45.118;20.724;2023-06-22T11:01:38;100818.19;;;32.96
78669;BMP280;67984;45.118;20.724;2023-06-22T11:11:40;100810.44;;;32.80
78669;BMP280;67984;45.118;20.724;2023-06-22T11:21:40;100803.16;;;33.08
78669;BMP280;67984;45.118;20.724;2023-06-22T11:31:41;100785.53;;;33.47
78669;BMP280;67984;45.118;20.724;2023-06-22T11:41:43;100777.19;;;33.65
78669;BMP280;67984;45.118;20.724;2023-06-22T11:51:44;100778.19;;;33.55
78669;BMP280;67984;45.118;20.724;2023-06-22T12:01:45;100770.69;;;33.68
78669;BMP280;67984;45.118;20.724;2023-06-22T12:11:46;100750.19;;;34.08
78669;BMP280;67984;45.118;20.724;2023-06-22T12:21:47;100727.09;;;33.87
78669;BMP280;67984;45.118;20.724;2023-06-22T12:31:48;100725.00;;;34.00
78669;BMP280;67984;45.118;20.724;2023-06-22T12:41:49;100715.84;;;34.10
78669;BMP280;67984;45.118;20.724;2023-06-22T12:51:49;100710.88;;;33.94
78669;BMP280;67984;45.118;20.724;2023-06-22T13:01:50;100714.03;;;33.78
78669;BMP280;67984;45.118;20.724;2023-06-22T13:11:51;100704.56;;;33.64
78669;BMP280;67984;45.118;20.724;2023-06-22T13:21:53;100689.34;;;33.61
78669;BMP280;67984;45.118;20.724;2023-06-22T13:31:53;100695.16;;;33.65
78669;BMP280;67984;45.118;20.724;2023-06-22T13:41:57;100679.28;;;33.41
78669;BMP280;67984;45.118;20.724;2023-06-22T13:51:59;100690.19;;;33.28
78669;BMP280;67984;45.118;20.724;2023-06-22T14:02:00;100672.22;;;33.38
78669;BMP280;67984;45.118;20.724;2023-06-22T14:12:05;100670.19;;;33.31
78669;BMP280;67984;45.118;20.724;2023-06-22T14:22:07;100663.59;;;33.20
78669;BMP280;67984;45.118;20.724;2023-06-22T14:32:08;100652.06;;;33.26
78669;BMP280;67984;45.118;20.724;2023-06-22T14:42:09;100649.38;;;33.06
78669;BMP280;67984;45.118;20.724;2023-06-22T14:52:10;100641.00;;;32.97
78669;BMP280;67984;45.118;20.724;2023-06-22T15:02:11;100624.25;;;32.98
78669;BMP280;67984;45.118;20.724;2023-06-22T15:12:12;100609.06;;;32.95
78669;BMP280;67984;45.118;20.724;2023-06-22T15:22:13;100606.31;;;33.16
78669;BMP280;67984;45.118;20.724;2023-06-22T15:32:13;100610.19;;;33.00
78669;BMP280;67984;45.118;20.724;2023-06-22T15:42:14;100603.09;;;33.17
78669;BMP280;67984;45.118;20.724;2023-06-22T15:52:15;100592.03;;;33.35
78669;BMP280;67984;45.118;20.724;2023-06-22T16:02:19;100595.81;;;33.32
78669;BMP280;67984;45.118;20.724;2023-06-22T16:12:20;100598.94;;;33.44
78669;BMP280;67984;45.118;20.724;2023-06-22T16:22:21;100594.16;;;33.29
78669;BMP280;67984;45.118;20.724;2023-06-22T16:32:22;100594.53;;;33.06
78669;BMP280;67984;45.118;20.724;2023-06-22T16:42:23;100593.81;;;32.85
78669;BMP280;67984;45.118;20.724;2023-06-22T16:52:24;100607.66;;;33.02
78669;BMP280;67984;45.118;20.724;2023-06-22T17:02:25;100615.28;;;34.51
78669;BMP280;67984;45.118;20.724;2023-06-22T17:12:26;100618.72;;;34.88
78669;BMP280;67984;45.118;20.724;2023-06-22T17:22:29;100608.19;;;34.85
78669;BMP280;67984;45.118;20.724;2023-06-22T17:32:36;100606.59;;;34.67
78669;BMP280;67984;45.118;20.724;2023-06-22T17:42:37;100602.41;;;32.96
78669;BMP280;67984;45.118;20.724;2023-06-22T17:52:37;100603.13;;;32.43
78669;BMP280;67984;45.118;20.724;2023-06-22T18:02:41;100597.44;;;31.37
78669;BMP280;67984;45.118;20.724;2023-06-22T18:12:43;100598.13;;;30.62
78669;BMP280;67984;45.118;20.724;2023-06-22T18:22:48;100595.97;;;30.01
78669;BMP280;67984;45.118;20.724;2023-06-22T18:32:49;100590.84;;;29.50
78669;BMP280;67984;45.118;20.724;2023-06-22T18:42:51;100605.63;;;29.09
78669;BMP280;67984;45.118;20.724;2023-06-22T18:53:03;100605.34;;;28.72
78669;BMP280;67984;45.118;20.724;2023-06-22T19:03:04;100630.16;;;28.43
78669;BMP280;67984;45.118;20.724;2023-06-22T19:23:34;100641.75;;;27.84
78669;BMP280;67984;45.118;20.724;2023-06-22T19:33:37;100640.56;;;27.63
78669;BMP280;67984;45.118;20.724;2023-06-22T19:43:38;100637.84;;;27.47
78669;BMP280;67984;45.118;20.724;2023-06-22T19:53:42;100635.88;;;27.26
78669;BMP280;67984;45.118;20.724;2023-06-22T20:03:44;100642.88;;;27.02
78669;BMP280;67984;45.118;20.724;2023-06-22T20:13:49;100632.31;;;26.76
78669;BMP280;67984;45.118;20.724;2023-06-22T20:23:49;100633.69;;;26.56
78669;BMP280;67984;45.118;20.724;2023-06-22T20:34:02;100621.16;;;26.36
78669;BMP280;67984;45.118;20.724;2023-06-22T20:44:04;100613.03;;;26.20
78669;BMP280;67984;45.118;20.724;2023-06-22T20:54:05;100608.31;;;26.04
78669;BMP280;67984;45.118;20.724;2023-06-22T21:04:06;100603.13;;;25.95
78669;BMP280;67984;45.118;20.724;2023-06-22T21:14:07;100598.72;;;25.92
78669;BMP280;67984;45.118;20.724;2023-06-22T21:24:08;100597.41;;;25.77
78669;BMP280;67984;45.118;20.724;2023-06-22T21:34:08;100599.47;;;25.62
78669;BMP280;67984;45.118;20.724;2023-06-22T21:44:09;100600.81;;;25.47
78669;BMP280;67984;45.118;20.724;2023-06-22T21:54:10;100596.97;;;25.28
78669;BMP280;67984;45.118;20.724;2023-06-22T22:04:10;100579.56;;;25.13
78669;BMP280;67984;45.118;20.724;2023-06-22T22:14:11;100557.34;;;25.01
78669;BMP280;67984;45.118;20.724;2023-06-22T22:24:12;100563.09;;;24.94
78669;BMP280;67984;45.118;20.724;2023-06-22T22:34:13;100564.69;;;24.87
78669;BMP280;67984;45.118;20.724;2023-06-22T22:44:14;100557.34;;;24.82
78669;BMP280;67984;45.118;20.724;2023-06-22T22:54:15;100544.13;;;24.73
78669;BMP280;67984;45.118;20.724;2023-06-22T23:04:15;100533.13;;;24.65
78669;BMP280;67984;45.118;20.724;2023-06-22T23:14:18;100535.69;;;24.54
78669;BMP280;67984;45.118;20.724;2023-06-22T23:24:20;100529.75;;;24.45
78669;BMP280;67984;45.118;20.724;2023-06-22T23:34:21;100505.22;;;24.27
78669;BMP280;67984;45.118;20.724;2023-06-22T23:44:22;100486.41;;;24.16
78669;BMP280;67984;45.118;20.724;2023-06-22T23:54:25;100472.44;;;24.06
